Time;durP1;ratioP1;P1;durP2;ratioP2;P2;SDS_P1;SDS_P2;PMS_P1;PMS_P2;Temp;Humidity;BMP_temperature;BMP_pressure;BME280_temperature;BME280_humidity;BME280_pressure;Samples;Min_cycle;Max_cycle;Signal;HPM_P1;HPM_P2
2022/12/25 00:00:27;;;;;;;24.41;9.36;;;5.70;99.90;;;;;;4598361;28;10002870;-74
2022/12/25 00:02:53;;;;;;;29.98;9.35;;;5.80;99.90;;;;;;5057803;28;20043;-75
2022/12/25 00:05:19;;;;;;;20.42;9.35;;;5.70;99.90;;;;;;5071986;28;20031;-74
2022/12/25 00:07:44;;;;;;;44.08;9.50;;;5.60;99.90;;;;;;5084121;28;20036;-74
2022/12/25 00:10:10;;;;;;;13.05;8.48;;;5.60;99.90;;;;;;5081170;28;20055;-75
2022/12/25 00:12:36;;;;;;;13.45;8.15;;;5.60;99.90;;;;;;5075432;28;20629;-75
2022/12/25 00:15:02;;;;;;;12.25;8.30;;;5.60;99.90;;;;;;5067672;28;20036;-75
2022/12/25 00:17:27;;;;;;;16.67;8.38;;;5.60;99.90;;;;;;5075664;28;20047;-74
2022/12/25 00:19:53;;;;;;;29.45;10.15;;;5.50;99.90;;;;;;5078485;28;20572;-74
2022/12/25 00:22:19;;;;;;;28.50;10.13;;;5.60;99.90;;;;;;5073846;28;20085;-74
2022/12/25 00:24:46;;;;;;;35.40;11.57;;;5.70;99.90;;;;;;5080777;28;20131;-75
2022/12/25 00:27:12;;;;;;;42.60;12.10;;;5.70;99.90;;;;;;5078787;28;20522;-74
2022/12/25 00:29:37;;;;;;;32.85;11.40;;;5.80;99.90;;;;;;5076434;28;20055;-74
2022/12/25 00:32:03;;;;;;;44.45;12.05;;;5.90;99.90;;;;;;5069734;28;20447;-75
2022/12/25 00:34:29;;;;;;;36.95;11.40;;;5.90;99.90;;;;;;5079554;28;20040;-74
2022/12/25 00:36:54;;;;;;;24.88;11.15;;;6.00;99.90;;;;;;5079695;28;20028;-75
2022/12/25 00:39:20;;;;;;;33.83;11.82;;;6.00;99.90;;;;;;5082064;28;20443;-75
2022/12/25 00:44:30;;;;;;;43.38;12.32;;;6.00;99.90;;;;;;5079080;28;20089;-73
2022/12/25 00:46:55;;;;;;;29.00;12.23;;;6.00;99.90;;;;;;5049911;28;20029;-74
2022/12/25 00:49:22;;;;;;;38.65;12.00;;;6.00;99.90;;;;;;5058046;28;20541;-74
2022/12/25 00:51:49;;;;;;;35.30;12.52;;;6.00;99.90;;;;;;5056359;28;20052;-74
2022/12/25 00:54:15;;;;;;;33.35;12.00;;;6.00;99.90;;;;;;5063241;28;20289;-74
2022/12/25 00:56:40;;;;;;;31.48;11.30;;;6.10;99.90;;;;;;5067995;28;20488;-74
2022/12/25 00:59:06;;;;;;;40.85;12.45;;;6.10;99.90;;;;;;5057906;28;20057;-74
2022/12/25 01:01:32;;;;;;;31.83;12.60;;;6.10;99.90;;;;;;5043382;28;20016;-74
2022/12/25 01:03:58;;;;;;;35.33;12.85;;;6.10;99.90;;;;;;5048969;28;20032;-74
2022/12/25 01:06:24;;;;;;;34.78;11.93;;;6.10;99.90;;;;;;5065525;28;20044;-74
2022/12/25 01:11:35;;;;;;;31.95;12.00;;;6.20;99.90;;;;;;5052054;28;20110;-74
2022/12/25 01:14:00;;;;;;;32.60;12.35;;;6.20;99.90;;;;;;5054149;28;20075;-74
2022/12/25 01:16:27;;;;;;;37.10;12.23;;;6.20;99.90;;;;;;5050980;28;20107;-74
2022/12/25 01:18:52;;;;;;;39.38;11.65;;;6.20;99.90;;;;;;5045154;28;20032;-74
2022/12/25 01:21:20;;;;;;;29.65;11.57;;;6.30;99.90;;;;;;5053663;28;20020;-74
2022/12/25 01:23:46;;;;;;;35.42;11.50;;;6.30;99.90;;;;;;5056499;28;20040;-74
2022/12/25 01:26:14;;;;;;;33.33;11.43;;;6.30;99.90;;;;;;5058206;28;20021;-74
2022/12/25 01:28:40;;;;;;;34.92;11.95;;;6.30;99.90;;;;;;5056499;28;20023;-74
2022/12/25 01:31:10;;;;;;;36.40;12.90;;;6.30;99.90;;;;;;5052188;28;20032;-74
2022/12/25 01:33:36;;;;;;;40.80;12.55;;;6.30;99.90;;;;;;5057353;28;20036;-74
2022/12/25 01:36:02;;;;;;;41.13;11.57;;;6.30;99.90;;;;;;5053786;28;20024;-75
2022/12/25 01:38:28;;;;;;;39.92;13.00;;;6.30;99.90;;;;;;5052873;28;20067;-74
2022/12/25 01:40:53;;;;;;;35.70;11.48;;;6.40;99.90;;;;;;5049797;28;20032;-74
2022/12/25 01:43:31;;;;;;;29.98;11.23;;;6.40;99.90;;;;;;5054167;28;20526;-74
2022/12/25 01:45:57;;;;;;;37.10;12.38;;;6.40;99.90;;;;;;5062456;28;20052;-74
2022/12/25 01:48:31;;;;;;;31.02;12.40;;;6.40;99.90;;;;;;5078630;28;20032;-74
2022/12/25 01:51:05;;;;;;;29.65;11.02;;;6.40;99.90;;;;;;5081597;28;20287;-75
2022/12/25 01:53:31;;;;;;;21.40;9.93;;;6.40;99.90;;;;;;5076747;28;20478;-74
2022/12/25 01:56:04;;;;;;;16.67;9.75;;;6.40;99.90;;;;;;5079364;28;20028;-74
2022/12/25 01:58:30;;;;;;;21.80;9.95;;;6.40;99.90;;;;;;5079497;28;20076;-74
2022/12/25 02:00:56;;;;;;;18.65;9.48;;;6.40;99.90;;;;;;5076897;28;20397;-74
2022/12/25 02:03:22;;;;;;;17.20;9.30;;;6.50;99.90;;;;;;5076609;28;20020;-73
2022/12/25 02:05:49;;;;;;;21.80;9.85;;;6.50;99.90;;;;;;5076101;28;20035;-74
2022/12/25 02:08:17;;;;;;;19.83;9.93;;;6.50;99.90;;;;;;5080031;28;20031;-74
2022/12/25 02:10:43;;;;;;;27.30;10.98;;;6.50;99.90;;;;;;5074081;28;20040;-74
2022/12/25 02:13:11;;;;;;;21.80;9.70;;;6.50;99.90;;;;;;5080323;28;20024;-74
2022/12/25 02:16:12;;;;;;;19.13;10.23;;;6.50;99.90;;;;;;5074071;28;20021;-74
2022/12/25 02:18:52;;;;;;;25.48;10.90;;;6.50;99.90;;;;;;5081337;28;20032;-74
2022/12/25 02:21:36;;;;;;;21.10;10.20;;;6.50;99.90;;;;;;5070308;28;20028;-74
2022/12/25 02:24:33;;;;;;;19.13;9.95;;;6.50;99.90;;;;;;5078617;28;20031;-74
2022/12/25 02:27:21;;;;;;;25.08;10.85;;;6.60;99.90;;;;;;5084072;28;20092;-74
2022/12/25 02:30:06;;;;;;;21.98;10.13;;;6.60;99.90;;;;;;5077081;28;20039;-74
2022/12/25 02:34:01;;;;;;;22.35;9.95;;;6.60;99.90;;;;;;5079379;28;20489;-74
2022/12/25 02:35:44;;;;;;;21.98;10.00;;;6.60;99.90;;;;;;5080711;28;20036;-74
2022/12/25 02:38:19;;;;;;;22.38;10.15;;;6.60;99.90;;;;;;5086971;28;20056;-74
2022/12/25 02:40:56;;;;;;;19.77;10.30;;;6.60;99.90;;;;;;5079284;28;20030;-74
2022/12/25 03:08:48;;;;;;;15.13;8.73;;;6.70;99.90;;;;;;5079885;28;20047;-75
2022/12/25 03:11:29;;;;;;;19.73;9.35;;;6.70;99.90;;;;;;5077267;28;20062;-75
2022/12/25 03:16:51;;;;;;;;;;;6.70;99.90;;;;;;5078972;28;20133;-74
2022/12/25 03:27:43;;;;;;;20.55;9.57;;;6.80;99.90;;;;;;5081092;28;20020;-74
2022/12/25 03:33:22;;;;;;;25.67;10.80;;;6.80;99.90;;;;;;5078990;28;20093;-74
2022/12/25 03:36:08;;;;;;;29.08;11.27;;;6.80;99.90;;;;;;5078107;28;20028;-74
2022/12/25 04:37:26;;;;;;;20.17;8.35;;;7.20;99.90;;;;;;5081932;28;20437;-74
2022/12/25 04:39:52;;;;;;;19.33;7.68;;;7.10;99.90;;;;;;5077755;28;20055;-74
2022/12/25 04:42:18;;;;;;;19.20;9.00;;;7.10;99.90;;;;;;5078280;28;20054;-74
2022/12/25 04:44:43;;;;;;;19.38;8.63;;;7.00;99.90;;;;;;5076588;28;20043;-75
2022/12/25 04:47:09;;;;;;;15.10;9.07;;;7.00;99.90;;;;;;5084029;28;20051;-75
2022/12/25 04:49:34;;;;;;;21.20;9.50;;;7.00;99.90;;;;;;5081405;28;20070;-75
2022/12/25 04:52:00;;;;;;;17.85;9.52;;;7.00;99.90;;;;;;5080017;28;20043;-75
2022/12/25 04:54:25;;;;;;;19.15;9.13;;;7.00;99.90;;;;;;5080811;28;20027;-75
2022/12/25 04:56:51;;;;;;;16.73;7.78;;;7.00;99.90;;;;;;5078265;28;20445;-74
2022/12/25 04:59:17;;;;;;;17.90;9.15;;;7.00;99.90;;;;;;5078758;28;20024;-75
2022/12/25 05:01:42;;;;;;;18.85;8.73;;;6.90;99.90;;;;;;5076161;28;20033;-74
2022/12/25 05:04:08;;;;;;;18.13;8.57;;;6.90;99.90;;;;;;5081316;28;20035;-75
2022/12/25 05:06:33;;;;;;;17.40;8.45;;;6.90;99.90;;;;;;5081611;28;20028;-75
2022/12/25 05:08:59;;;;;;;16.33;8.43;;;6.90;99.90;;;;;;5080090;28;20042;-75
2022/12/25 05:11:24;;;;;;;18.70;8.57;;;6.90;99.90;;;;;;5080326;28;20032;-75
2022/12/25 05:13:50;;;;;;;18.88;8.48;;;7.00;99.90;;;;;;5077951;28;20028;-75
2022/12/25 05:16:18;;;;;;;16.35;8.27;;;7.00;99.90;;;;;;5080006;28;20008;-75
2022/12/25 05:18:44;;;;;;;19.38;8.30;;;7.00;99.90;;;;;;5075214;28;20023;-75
2022/12/25 05:21:11;;;;;;;24.95;9.20;;;7.00;99.90;;;;;;5083932;28;20042;-75
2022/12/25 05:23:37;;;;;;;20.50;9.30;;;7.00;99.90;;;;;;5074841;28;22003;-75
2022/12/25 05:26:07;;;;;;;23.58;10.40;;;7.10;99.90;;;;;;5077247;28;20063;-75
2022/12/25 05:28:35;;;;;;;18.17;8.80;;;7.10;99.90;;;;;;5081169;28;20112;-75
2022/12/25 05:31:01;;;;;;;23.63;8.57;;;7.10;99.90;;;;;;5080740;28;20051;-75
2022/12/25 05:33:27;;;;;;;15.52;8.48;;;7.10;99.90;;;;;;5079217;28;20032;-74
2022/12/25 05:35:52;;;;;;;22.23;9.95;;;7.20;99.90;;;;;;5081436;28;20118;-75
2022/12/25 05:38:18;;;;;;;28.90;11.35;;;7.20;99.90;;;;;;5073244;28;20028;-75
2022/12/25 05:40:43;;;;;;;28.20;11.70;;;7.20;99.90;;;;;;5079143;28;21051;-73
2022/12/25 05:43:09;;;;;;;28.38;10.55;;;7.20;99.90;;;;;;5077579;28;20028;-73
2022/12/25 05:45:35;;;;;;;24.40;11.15;;;7.30;99.90;;;;;;5082855;28;20055;-74
2022/12/25 05:48:01;;;;;;;30.20;12.10;;;7.30;99.90;;;;;;5092531;28;20128;-74
2022/12/25 05:50:26;;;;;;;27.85;10.95;;;7.30;99.90;;;;;;5082949;28;20044;-74
2022/12/25 05:52:52;;;;;;;28.50;12.70;;;7.40;99.90;;;;;;5072786;28;20533;-74
2022/12/25 05:55:17;;;;;;;27.75;11.32;;;7.40;99.90;;;;;;5077875;28;20016;-74
2022/12/25 05:57:43;;;;;;;30.38;11.93;;;7.40;99.90;;;;;;5080323;28;20020;-74
2022/12/25 06:00:09;;;;;;;35.92;12.05;;;7.50;99.90;;;;;;5075767;28;20115;-74
2022/12/25 06:02:35;;;;;;;33.35;12.70;;;7.50;99.90;;;;;;5078465;28;20112;-74
2022/12/25 06:05:02;;;;;;;30.67;12.07;;;7.50;99.90;;;;;;5078845;28;20135;-73
2022/12/25 06:07:27;;;;;;;31.73;11.85;;;7.60;99.90;;;;;;5079198;28;20101;-73
2022/12/25 06:09:53;;;;;;;31.77;12.55;;;7.60;99.90;;;;;;5080459;28;20024;-74
2022/12/25 06:12:18;;;;;;;26.42;12.32;;;7.60;99.90;;;;;;5072171;28;20024;-74
2022/12/25 06:14:44;;;;;;;36.38;12.63;;;7.60;99.90;;;;;;5081385;28;20024;-74
2022/12/25 06:17:10;;;;;;;30.38;14.23;;;7.60;99.90;;;;;;5079705;28;20024;-74
2022/12/25 06:19:36;;;;;;;28.77;12.77;;;7.60;99.90;;;;;;5080060;28;20496;-74
2022/12/25 06:22:01;;;;;;;22.98;11.30;;;7.60;99.90;;;;;;5078851;28;20550;-74
2022/12/25 06:24:27;;;;;;;26.52;11.32;;;7.50;99.90;;;;;;5081825;28;20043;-75
2022/12/25 06:26:53;;;;;;;24.55;12.10;;;7.50;99.90;;;;;;5077819;28;20028;-74
2022/12/25 06:29:18;;;;;;;26.85;12.85;;;7.50;99.90;;;;;;5079956;28;20492;-74
2022/12/25 06:31:44;;;;;;;26.50;12.70;;;7.40;99.90;;;;;;5074542;28;20111;-75
2022/12/25 06:34:09;;;;;;;36.10;13.70;;;7.40;99.90;;;;;;5075673;28;20498;-74
2022/12/25 06:36:36;;;;;;;34.17;12.70;;;7.40;99.90;;;;;;5080895;28;20028;-74
2022/12/25 06:39:02;;;;;;;37.35;13.75;;;7.50;99.90;;;;;;5076424;28;20055;-75
2022/12/25 06:41:29;;;;;;;36.95;13.93;;;7.50;99.90;;;;;;5079866;28;20024;-74
2022/12/25 06:43:57;;;;;;;27.23;13.07;;;7.50;99.90;;;;;;5077046;28;20055;-74
2022/12/25 06:46:24;;;;;;;27.50;13.40;;;7.50;99.90;;;;;;5076176;28;20044;-75
2022/12/25 06:48:50;;;;;;;33.00;13.70;;;7.50;99.90;;;;;;4723156;28;9999709;-74
2022/12/25 06:51:18;;;;;;;31.75;13.10;;;7.60;99.90;;;;;;5061912;28;20142;-74
2022/12/25 06:53:45;;;;;;;33.63;13.52;;;7.60;99.90;;;;;;5067484;28;20474;-75
2022/12/25 06:56:14;;;;;;;31.33;14.18;;;7.60;99.90;;;;;;5066875;28;20045;-74
2022/12/25 06:58:45;;;;;;;35.58;13.93;;;7.60;99.90;;;;;;5079433;28;20064;-73
2022/12/25 07:01:17;;;;;;;34.05;14.75;;;7.60;99.90;;;;;;5063150;28;20039;-74
2022/12/25 07:03:45;;;;;;;36.78;14.55;;;7.60;99.90;;;;;;5068525;28;20032;-74
2022/12/25 07:06:11;;;;;;;28.38;14.38;;;7.60;99.90;;;;;;5078385;28;20036;-74
2022/12/25 07:08:37;;;;;;;28.65;13.85;;;7.60;99.90;;;;;;5082163;28;20093;-74
2022/12/25 07:11:03;;;;;;;30.08;14.05;;;7.60;99.90;;;;;;5079990;28;20036;-73
2022/12/25 07:13:28;;;;;;;27.23;13.73;;;7.60;99.90;;;;;;5080215;28;20031;-73
2022/12/25 07:16:01;;;;;;;24.23;12.70;;;7.60;99.90;;;;;;5079065;28;20131;-73
2022/12/25 07:18:27;;;;;;;;;;;7.60;99.90;;;;;;5081587;28;20042;-73
2022/12/25 07:20:58;;;;;;;28.27;12.73;;;7.60;99.90;;;;;;5080016;28;20631;-73
2022/12/25 07:23:24;;;;;;;24.85;12.80;;;7.60;99.90;;;;;;5077947;28;20040;-74
2022/12/25 07:25:54;;;;;;;29.92;12.43;;;7.60;99.90;;;;;;5077582;28;20032;-74
2022/12/25 07:28:20;;;;;;;29.92;12.82;;;7.60;99.90;;;;;;5072921;28;20039;-74
2022/12/25 07:30:46;;;;;;;33.03;12.57;;;7.70;99.90;;;;;;5085463;28;20028;-74
2022/12/25 07:33:11;;;;;;;28.25;12.70;;;7.70;99.90;;;;;;5080436;28;20131;-74
2022/12/25 07:35:37;;;;;;;30.05;12.70;;;7.70;99.90;;;;;;5081402;28;20540;-74
2022/12/25 07:38:03;;;;;;;26.95;12.35;;;7.80;99.90;;;;;;5080727;28;20069;-74
2022/12/25 07:40:29;;;;;;;22.35;11.27;;;7.80;99.90;;;;;;5075580;28;20036;-74
2022/12/25 07:42:54;;;;;;;24.40;11.40;;;7.80;99.90;;;;;;5066184;28;20056;-74
2022/12/25 07:45:20;;;;;;;27.52;12.43;;;7.80;99.90;;;;;;5071481;28;20379;-74
2022/12/25 07:47:46;;;;;;;21.30;11.25;;;7.80;99.90;;;;;;5071276;28;20033;-75
2022/12/25 07:50:11;;;;;;;16.95;11.00;;;7.80;99.90;;;;;;5069315;28;20024;-74
2022/12/25 07:52:37;;;;;;;25.52;11.35;;;7.80;99.90;;;;;;5071904;28;20036;-74
2022/12/25 07:55:03;;;;;;;24.08;11.25;;;7.80;99.90;;;;;;5068041;28;20110;-74
2022/12/25 07:57:28;;;;;;;21.77;11.05;;;7.80;99.90;;;;;;5076504;28;20374;-75
2022/12/25 07:59:54;;;;;;;23.73;12.02;;;7.80;99.90;;;;;;5074743;28;20447;-75
2022/12/25 08:02:27;;;;;;;22.25;10.52;;;;;;;;;;5062056;28;20031;-76
2022/12/25 08:04:53;;;;;;;15.75;8.43;;;7.80;99.90;;;;;;5071709;28;20111;-75
2022/12/25 08:07:19;;;;;;;22.88;10.35;;;7.80;99.90;;;;;;5071020;28;20097;-75
2022/12/25 08:09:45;;;;;;;16.05;9.82;;;7.90;99.90;;;;;;5080402;28;20726;-74
2022/12/25 08:12:10;;;;;;;15.68;9.63;;;7.90;99.90;;;;;;5074074;28;20066;-75
2022/12/25 08:14:36;;;;;;;21.27;9.68;;;7.90;99.90;;;;;;5079923;28;20512;-75
2022/12/25 08:17:01;;;;;;;16.58;8.68;;;7.90;99.90;;;;;;5074982;28;20028;-75
2022/12/25 08:19:28;;;;;;;14.45;8.02;;;7.90;99.90;;;;;;5081208;28;20085;-75
2022/12/25 08:21:53;;;;;;;17.77;8.70;;;8.00;99.90;;;;;;5077526;28;20028;-74
2022/12/25 08:24:19;;;;;;;16.80;8.75;;;8.00;99.90;;;;;;5079013;28;20039;-75
2022/12/25 08:26:45;;;;;;;17.23;7.55;;;8.00;99.90;;;;;;5078956;28;20028;-74
2022/12/25 08:29:10;;;;;;;11.00;7.05;;;8.00;99.90;;;;;;5083730;28;20123;-74
2022/12/25 08:31:36;;;;;;;14.93;9.02;;;8.00;99.90;;;;;;5078453;28;20058;-74
2022/12/25 08:34:03;;;;;;;17.02;7.93;;;8.00;99.90;;;;;;5083836;28;20028;-74
2022/12/25 08:36:29;;;;;;;14.00;7.60;;;8.00;99.90;;;;;;5074470;28;20032;-75
2022/12/25 08:38:55;;;;;;;11.35;6.85;;;8.10;99.90;;;;;;5089078;28;20031;-74
2022/12/25 08:41:22;;;;;;;15.52;6.95;;;8.10;99.90;;;;;;5079595;28;20028;-75
2022/12/25 08:43:48;;;;;;;14.90;6.93;;;8.10;99.90;;;;;;5063160;28;20944;-74
2022/12/25 08:46:13;;;;;;;13.55;8.27;;;8.10;99.90;;;;;;5077982;28;20506;-73
2022/12/25 08:48:42;;;;;;;13.25;6.85;;;8.10;99.90;;;;;;5067651;28;20082;-73
2022/12/25 08:51:13;;;;;;;12.07;6.78;;;8.10;99.90;;;;;;5061210;28;20395;-73
2022/12/25 08:53:41;;;;;;;13.95;7.30;;;8.10;99.90;;;;;;5076412;28;20022;-74
2022/12/25 08:56:07;;;;;;;12.48;6.40;;;8.10;99.90;;;;;;5079081;28;20070;-74
2022/12/25 08:58:33;;;;;;;14.88;7.13;;;8.10;99.90;;;;;;5084341;28;20024;-73
2022/12/25 09:00:58;;;;;;;12.63;7.07;;;8.20;99.90;;;;;;5076948;28;20046;-74
2022/12/25 09:03:25;;;;;;;13.98;7.53;;;8.20;99.90;;;;;;5078437;28;20129;-74
2022/12/25 09:05:51;;;;;;;14.85;7.78;;;8.20;99.90;;;;;;5081020;28;20035;-74
2022/12/25 09:08:17;;;;;;;14.30;7.60;;;8.30;99.90;;;;;;5079932;28;20058;-74
2022/12/25 09:10:43;;;;;;;13.82;8.43;;;8.30;99.90;;;;;;5074055;28;20559;-73
2022/12/25 09:13:08;;;;;;;15.85;8.25;;;8.30;99.90;;;;;;5080699;28;20334;-73
2022/12/25 09:15:36;;;;;;;16.65;7.88;;;8.30;99.90;;;;;;5077727;28;20055;-73
2022/12/25 09:18:02;;;;;;;17.02;7.82;;;8.30;99.90;;;;;;5080070;28;20408;-74
2022/12/25 09:20:28;;;;;;;19.35;8.10;;;8.30;99.90;;;;;;5081620;28;20040;-74
2022/12/25 09:22:53;;;;;;;11.65;7.13;;;8.40;99.90;;;;;;5081961;28;20668;-73
2022/12/25 09:25:19;;;;;;;17.27;7.22;;;8.40;99.90;;;;;;5080215;28;20726;-73
2022/12/25 09:27:45;;;;;;;16.15;7.90;;;8.40;99.90;;;;;;5085360;28;20028;-73
2022/12/25 09:30:10;;;;;;;16.10;7.32;;;8.40;99.90;;;;;;5089867;28;20070;-73
2022/12/25 09:32:39;;;;;;;13.77;7.72;;;8.40;99.90;;;;;;5078378;28;20028;-72
2022/12/25 09:35:05;;;;;;;19.75;8.38;;;8.40;99.90;;;;;;5083630;28;20024;-73
2022/12/25 09:37:31;;;;;;;19.35;8.40;;;8.40;99.90;;;;;;5081078;28;20024;-73
2022/12/25 09:39:57;;;;;;;26.42;9.23;;;8.50;99.90;;;;;;5079458;28;20541;-73
2022/12/25 09:42:27;;;;;;;23.98;8.95;;;8.50;99.90;;;;;;5074025;28;20719;-73
2022/12/25 09:45:03;;;;;;;22.70;9.38;;;8.50;99.90;;;;;;5074041;28;20039;-72
2022/12/25 09:47:32;;;;;;;21.92;9.48;;;8.50;99.90;;;;;;5090419;28;20081;-73
2022/12/25 09:50:18;;;;;;;24.17;9.80;;;8.60;99.90;;;;;;5090779;28;20035;-72
2022/12/25 09:53:04;;;;;;;20.00;8.10;;;8.60;99.90;;;;;;5078392;28;20094;-73
2022/12/25 09:55:34;;;;;;;27.88;8.55;;;8.60;99.90;;;;;;5077567;28;20032;-73
2022/12/25 09:58:08;;;;;;;19.05;8.20;;;8.60;99.90;;;;;;5070837;28;20056;-73
2022/12/25 10:00:42;;;;;;;21.95;9.07;;;8.60;99.90;;;;;;5076934;28;20024;-73
2022/12/25 10:03:12;;;;;;;21.90;8.18;;;8.60;99.90;;;;;;5073074;28;20020;-73
2022/12/25 10:05:46;;;;;;;22.70;8.52;;;8.60;99.90;;;;;;5082751;28;20444;-73
2022/12/25 10:08:46;;;;;;;23.30;8.55;;;8.60;99.90;;;;;;5073740;28;20027;-73
2022/12/25 10:11:27;;;;;;;19.17;7.90;;;8.70;99.90;;;;;;5066333;28;20028;-73
2022/12/25 10:14:17;;;;;;;17.23;7.53;;;8.60;99.90;;;;;;5078582;28;20020;-73
2022/12/25 10:16:58;;;;;;;21.20;8.18;;;8.60;99.90;;;;;;5083464;28;20028;-73
2022/12/25 10:19:37;;;;;;;16.40;8.65;;;8.60;99.90;;;;;;5085490;28;20038;-73
2022/12/25 10:22:10;;;;;;;22.08;8.95;;;;;;;;;;5075522;28;20028;-69
2022/12/25 10:24:47;;;;;;;21.35;8.30;;;8.70;99.90;;;;;;5071286;28;20102;-69
2022/12/25 10:27:30;;;;;;;17.67;7.68;;;8.70;99.90;;;;;;5072149;28;20036;-69
2022/12/25 10:29:57;;;;;;;19.17;8.10;;;8.70;99.90;;;;;;5072983;28;20028;-70
2022/12/25 10:32:23;;;;;;;23.83;9.60;;;8.60;99.90;;;;;;5072101;28;20040;-69
2022/12/25 10:34:49;;;;;;;15.35;8.70;;;8.60;99.90;;;;;;5069673;28;20064;-70
2022/12/25 10:37:15;;;;;;;22.77;9.13;;;8.60;99.90;;;;;;5075802;28;20034;-70
2022/12/25 10:39:42;;;;;;;16.92;9.15;;;8.60;99.90;;;;;;5073730;28;20071;-69
2022/12/25 10:42:22;;;;;;;18.55;9.50;;;8.60;99.90;;;;;;5077923;28;20036;-69
2022/12/25 10:45:05;;;;;;;19.45;9.73;;;8.60;99.90;;;;;;5074737;28;20211;-70
2022/12/25 10:47:36;;;;;;;16.42;8.73;;;8.60;99.90;;;;;;5075856;28;20123;-70
2022/12/25 10:50:08;;;;;;;14.57;8.80;;;8.60;99.90;;;;;;5078652;28;20504;-70
2022/12/25 10:52:33;;;;;;;16.73;9.40;;;8.50;99.90;;;;;;5076864;28;20052;-70
2022/12/25 10:55:17;;;;;;;18.10;9.63;;;8.50;99.90;;;;;;5076005;28;20054;-69
2022/12/25 10:57:45;;;;;;;18.63;10.93;;;8.50;99.90;;;;;;5075453;28;20374;-70
2022/12/25 11:00:27;;;;;;;20.92;10.02;;;8.50;99.90;;;;;;5076948;28;20051;-70
2022/12/25 11:02:53;;;;;;;17.13;9.98;;;8.50;99.90;;;;;;5068408;28;20040;-70
2022/12/25 11:05:33;;;;;;;19.02;10.65;;;8.50;99.90;;;;;;5073044;28;20044;-70
2022/12/25 11:08:00;;;;;;;13.98;9.13;;;8.50;99.90;;;;;;5075846;28;20359;-69
2022/12/25 11:10:41;;;;;;;17.63;9.18;;;8.50;99.90;;;;;;5066977;28;20166;-69
2022/12/25 11:13:16;;;;;;;15.98;9.48;;;8.50;99.90;;;;;;5077309;28;20036;-70
2022/12/25 11:15:44;;;;;;;13.25;8.98;;;8.50;99.90;;;;;;5074463;28;20054;-70
2022/12/25 11:18:24;;;;;;;14.85;9.02;;;8.60;99.90;;;;;;5078856;28;20028;-70
2022/12/25 11:21:02;;;;;;;12.75;8.52;;;8.60;99.90;;;;;;5084443;28;20109;-70
2022/12/25 11:23:29;;;;;;;18.30;8.77;;;8.60;99.90;;;;;;5069173;28;20036;-70
2022/12/25 11:25:58;;;;;;;19.75;10.38;;;8.60;99.90;;;;;;5079686;28;20028;-70
2022/12/25 11:28:25;;;;;;;17.08;9.73;;;8.60;99.90;;;;;;5072278;28;20119;-70
2022/12/25 11:30:59;;;;;;;25.65;13.10;;;8.60;99.90;;;;;;5075039;28;20078;-71
2022/12/25 11:33:31;;;;;;;21.88;14.95;;;8.60;99.90;;;;;;5074820;28;20040;-71
2022/12/25 11:36:02;;;;;;;24.80;14.38;;;8.70;99.90;;;;;;5075562;28;20421;-70
2022/12/25 11:38:27;;;;;;;20.30;14.27;;;8.60;99.90;;;;;;5074969;28;20482;-69
2022/12/25 11:40:57;;;;;;;24.02;17.23;;;8.60;99.90;;;;;;5078576;28;20031;-70
2022/12/25 11:43:32;;;;;;;25.02;14.88;;;8.60;99.90;;;;;;5069140;28;20024;-70
2022/12/25 11:46:21;;;;;;;18.40;12.15;;;8.70;99.90;;;;;;5069853;28;20048;-72
2022/12/25 11:48:55;;;;;;;15.95;10.93;;;8.70;99.90;;;;;;5074238;28;20054;-70
2022/12/25 11:51:24;;;;;;;19.90;12.15;;;8.70;99.90;;;;;;5070042;28;20032;-70
2022/12/25 11:53:51;;;;;;;19.95;12.77;;;8.70;99.90;;;;;;5076725;28;20097;-70
2022/12/25 11:56:21;;;;;;;18.35;12.18;;;8.70;99.90;;;;;;5075563;28;20074;-70
2022/12/25 11:58:52;;;;;;;20.23;12.57;;;8.70;99.90;;;;;;5063376;28;20031;-70
2022/12/25 12:01:28;;;;;;;18.88;12.13;;;8.60;99.90;;;;;;5077988;28;20600;-70
2022/12/25 12:03:54;;;;;;;19.13;12.18;;;8.60;99.90;;;;;;5073969;28;20089;-70
2022/12/25 12:06:31;;;;;;;18.70;12.88;;;8.60;99.90;;;;;;5078085;28;20032;-70
2022/12/25 12:09:29;;;;;;;15.38;11.23;;;8.60;99.90;;;;;;5074784;28;23437;-70
2022/12/25 12:12:18;;;;;;;16.60;11.65;;;8.60;99.90;;;;;;5066283;28;20044;-69
2022/12/25 12:15:01;;;;;;;12.40;9.95;;;8.60;99.90;;;;;;5061641;28;20115;-69
2022/12/25 12:17:26;;;;;;;16.83;11.18;;;8.70;99.90;;;;;;5075851;28;20109;-69
2022/12/25 12:19:52;;;;;;;20.17;11.55;;;8.70;99.90;;;;;;5067063;28;20565;-69
2022/12/25 12:22:23;;;;;;;15.48;10.43;;;8.70;99.90;;;;;;5066917;28;20024;-69
2022/12/25 12:25:02;;;;;;;18.13;10.93;;;8.70;99.90;;;;;;5075192;28;20039;-69
2022/12/25 12:27:38;;;;;;;16.30;11.30;;;8.70;99.90;;;;;;5073615;28;20039;-69
2022/12/25 12:30:06;;;;;;;13.13;10.38;;;8.70;99.90;;;;;;5075420;28;20029;-69
2022/12/25 12:32:48;;;;;;;14.63;10.02;;;8.70;99.90;;;;;;5070922;28;20039;-70
2022/12/25 12:35:24;;;;;;;13.70;9.07;;;8.80;99.90;;;;;;5078099;28;20024;-71
2022/12/25 12:37:58;;;;;;;14.68;8.98;;;8.80;99.90;;;;;;5079430;28;20024;-70
2022/12/25 12:40:35;;;;;;;11.23;8.75;;;8.80;99.90;;;;;;5071848;28;20023;-70
2022/12/25 12:43:01;;;;;;;11.45;8.65;;;8.80;99.90;;;;;;5073199;28;20371;-70
2022/12/25 12:45:33;;;;;;;13.48;9.10;;;8.80;99.90;;;;;;5076467;28;20043;-70
2022/12/25 12:47:59;;;;;;;17.05;9.85;;;8.80;99.90;;;;;;5076777;28;20038;-70
2022/12/25 12:50:39;;;;;;;16.27;9.30;;;8.80;99.90;;;;;;5071144;28;20170;-70
2022/12/25 12:53:23;;;;;;;19.95;10.90;;;8.80;99.90;;;;;;5073430;28;20035;-69
2022/12/25 12:55:50;;;;;;;17.67;9.70;;;8.80;99.90;;;;;;5077683;28;20069;-70
2022/12/25 12:58:32;;;;;;;13.57;8.25;;;8.80;99.90;;;;;;5073627;28;20466;-70
2022/12/25 13:01:10;;;;;;;11.82;7.90;;;8.80;99.90;;;;;;5066010;28;20027;-70
2022/12/25 13:03:54;;;;;;;11.75;7.22;;;8.80;99.90;;;;;;5074563;28;20032;-70
2022/12/25 13:06:32;;;;;;;10.93;7.45;;;8.80;99.90;;;;;;5072383;28;21780;-69
2022/12/25 13:09:09;;;;;;;11.82;7.30;;;8.80;99.90;;;;;;5078039;28;20016;-70
2022/12/25 13:11:40;;;;;;;13.27;6.95;;;8.80;99.90;;;;;;5069367;28;20032;-69
2022/12/25 13:14:14;;;;;;;12.32;6.80;;;8.80;99.90;;;;;;5066060;28;20735;-69
2022/12/25 13:16:41;;;;;;;10.15;5.97;;;8.80;99.90;;;;;;5070298;28;20020;-70
2022/12/25 13:19:27;;;;;;;10.05;5.60;;;8.90;99.90;;;;;;5078871;28;20039;-71
2022/12/25 13:21:57;;;;;;;7.90;5.55;;;8.80;99.90;;;;;;5073928;28;20031;-70
2022/12/25 13:24:32;;;;;;;13.50;6.30;;;8.80;99.90;;;;;;5076156;28;20114;-70
2022/12/25 13:26:59;;;;;;;8.20;5.50;;;8.80;99.90;;;;;;5081058;28;20066;-70
2022/12/25 13:29:33;;;;;;;10.05;5.63;;;8.80;99.90;;;;;;5074242;28;20563;-70
2022/12/25 13:32:00;;;;;;;11.02;5.57;;;8.80;99.90;;;;;;5081482;28;20035;-70
2022/12/25 13:34:32;;;;;;;6.20;4.72;;;8.80;99.90;;;;;;5076625;28;20035;-70
2022/12/25 13:37:04;;;;;;;8.97;4.53;;;8.80;99.90;;;;;;5075508;28;20051;-70
2022/12/25 13:39:30;;;;;;;8.82;4.70;;;8.80;99.90;;;;;;5078647;28;20063;-71
2022/12/25 13:42:05;;;;;;;8.88;4.82;;;8.90;99.90;;;;;;5079047;28;20161;-70
2022/12/25 13:44:45;;;;;;;8.00;5.13;;;8.90;99.90;;;;;;5075029;28;20796;-70
2022/12/25 13:47:19;;;;;;;8.15;4.95;;;8.90;99.90;;;;;;5074952;28;20471;-70
2022/12/25 13:49:46;;;;;;;7.13;4.55;;;8.90;99.90;;;;;;5073068;28;20060;-70
2022/12/25 13:52:14;;;;;;;7.72;4.70;;;8.90;99.90;;;;;;5071526;28;20153;-69
2022/12/25 13:54:52;;;;;;;10.85;5.45;;;8.90;99.90;;;;;;5075661;28;20027;-69
2022/12/25 13:57:29;;;;;;;7.75;5.38;;;8.90;99.90;;;;;;5074392;28;20342;-70
2022/12/25 13:59:55;;;;;;;7.05;4.72;;;8.90;99.90;;;;;;5076125;28;20028;-71
2022/12/25 14:02:26;;;;;;;11.27;5.80;;;9.00;99.90;;;;;;5073344;28;20024;-70
2022/12/25 14:04:52;;;;;;;12.43;6.13;;;9.00;99.90;;;;;;5078955;28;20036;-71
2022/12/25 14:07:24;;;;;;;12.77;6.82;;;9.00;99.90;;;;;;5079122;28;20036;-71
2022/12/25 14:09:58;;;;;;;11.27;6.50;;;9.00;99.90;;;;;;5075615;28;20650;-71
2022/12/25 14:12:26;;;;;;;8.10;5.30;;;9.00;99.90;;;;;;5073913;28;20040;-71
2022/12/25 14:14:53;;;;;;;7.90;5.25;;;9.00;99.90;;;;;;5071117;28;20016;-71
2022/12/25 14:17:19;;;;;;;7.80;5.03;;;9.00;99.90;;;;;;5074817;28;20151;-71
2022/12/25 14:19:44;;;;;;;11.13;5.90;;;9.00;99.90;;;;;;5076203;28;20039;-71
2022/12/25 14:22:22;;;;;;;10.45;5.70;;;8.90;99.90;;;;;;5073753;28;20027;-70
2022/12/25 14:24:48;;;;;;;11.00;6.35;;;8.90;99.90;;;;;;5081725;28;20055;-71
2022/12/25 14:27:19;;;;;;;14.10;7.30;;;9.00;99.90;;;;;;5071687;28;20099;-71
2022/12/25 14:29:47;;;;;;;26.92;13.05;;;9.00;99.90;;;;;;5070856;28;20085;-70
2022/12/25 14:32:19;;;;;;;13.15;8.40;;;9.00;99.90;;;;;;5073256;28;20038;-83
2022/12/25 14:34:48;;;;;;;14.60;10.85;;;9.00;99.90;;;;;;5072130;28;20019;-75
2022/12/25 14:37:24;;;;;;;15.18;11.05;;;9.00;99.90;;;;;;5079896;28;20036;-75
2022/12/25 14:40:16;;;;;;;15.43;11.00;;;9.00;99.90;;;;;;5084476;28;20012;-74